Aérodrome :
LOGIN :

S'inscrire | Disclaimer

   EN    FR    IT 

 










Légende :    VFR   VFR Marginal   IFR   IFR Intensif   IFR Très Intensif
Visi : 
Plafond : 
>= 8 km
>= 3000ft
5 à 8 km
1000 à 3000 ft
1500m à 5 km
500 à 1000 ft
800 à 1500m
200 à 500 ft
< 800m
< 200 ft
Symboles :   Orages  Brouillard  Fortes neiges  Fortes précipitations  Vent > 20 kt
SIGMETs :   Divers  Orages  Givrage  Turbulence  Onde Orograph.  Cendres Volcan.






- Altitude de l'aérodrome : 443 ft
- Code IATA : SQQ


EYSA - Siauliai

DERNIER METAR :
  • 280250Z 20007KT CAVOK 07/06 Q1012 BLU NOSIG

METARs EXPIRÉS :
  • 280220Z AUTO 20007KT 170V230 9999NDV NCD 07/07 Q1012
  • 280150Z AUTO 18008KT 9999NDV FEW006 07/07 Q1012
  • 280120Z AUTO 19007KT 9999NDV NSC 08/07 Q1012 RERA
  • 280050Z AUTO 20005KT 9999NDV RA NSC 08/07 Q1012
  • 280020Z AUTO 23006KT 9999NDV RA FEW047 BKN053 OVC067 08/07 Q1012

TAF TAF EYSA
Valide du 28 à 03h jusqu'au 28 à 12h UTC


280201Z 2803/2812 19012KT 9000 SCT010 BKN020
TEMPO 2803/2808 3000 BR BKN005



MET'MAP, la Météo Aéronautique d'un coup d'oeil ! - Copyright ORBIFLY Décembre 2007 - Disclaimer

ORBIFLY MET'MAP TEAM :

Programmation & Développement : Alexandra Zaïnal
Sur une idée originale de : Baudouin d'Aumeries
Assistance à la programmation : Marc-Olivier Méhu
Soutien technique & logistique : Manuel Goepfert

Contact : metmap@orbifly.com




SOURCES & CREDITS :

   NOAA